Time;durP1;ratioP1;P1;durP2;ratioP2;P2;SDS_P1;SDS_P2;PMS_P1;PMS_P2;Temp;Humidity;BMP_temperature;BMP_pressure;BME280_temperature;BME280_humidity;BME280_pressure;Samples;Min_cycle;Max_cycle;Signal;HPM_P1;HPM_P2
2021/08/30 00:01:56;;;;;;;3.90;3.60;;;20.40;99.90;;;20.82;62.92;101374.78;4964543;28;97417;-48
2021/08/30 00:04:23;;;;;;;17.60;15.80;;;20.50;99.90;;;20.81;63.06;101379.28;4969511;28;97717;-52
2021/08/30 00:06:48;;;;;;;13.77;12.47;;;20.50;99.90;;;20.81;63.16;101376.59;4982077;28;97897;-55
2021/08/30 00:09:16;;;;;;;19.57;14.87;;;20.50;99.90;;;20.78;63.32;101374.97;4965610;28;99542;-53
2021/08/30 00:11:42;;;;;;;12.47;10.57;;;20.40;99.90;;;20.79;63.12;101386.56;4968375;28;98469;-56
2021/08/30 00:14:08;;;;;;;18.27;16.37;;;20.40;99.90;;;20.77;63.36;101383.13;4971177;28;98114;-54
2021/08/30 00:16:34;;;;;;;13.17;12.00;;;20.40;99.90;;;20.79;62.92;101389.25;4969888;28;106707;-52
2021/08/30 00:19:00;;;;;;;4.20;3.80;;;20.50;99.90;;;20.80;62.91;101390.97;4962647;28;100028;-54
2021/08/30 00:21:26;;;;;;;19.27;15.17;;;20.50;99.90;;;20.79;63.09;101386.56;4975180;28;99835;-52
2021/08/30 00:23:51;;;;;;;25.97;18.13;;;20.50;99.90;;;20.68;66.23;101378.38;4966153;28;97511;-53
2021/08/30 00:26:17;;;;;;;12.10;10.93;;;20.40;99.90;;;20.70;63.39;101374.66;4971597;28;97306;-52
2021/08/30 00:28:43;;;;;;;20.17;16.40;;;20.40;99.90;;;20.71;64.30;101379.06;4969902;28;96892;-55
2021/08/30 00:31:09;;;;;;;14.63;11.53;;;20.40;99.90;;;20.70;63.65;101376.47;4974623;28;98917;-53
2021/08/30 00:33:35;;;;;;;11.70;10.23;;;20.30;99.90;;;20.69;63.47;101372.09;4965893;28;97529;-53
2021/08/30 00:36:00;;;;;;;12.10;10.37;;;20.30;99.90;;;20.70;63.34;101382.69;4965113;28;98772;-55
2021/08/30 00:38:26;;;;;;;10.07;7.70;;;20.30;99.90;;;20.66;63.92;101381.16;4986052;28;97254;-52
2021/08/30 00:40:52;;;;;;;20.00;16.43;;;20.30;99.90;;;20.59;66.73;101384.38;4966954;28;97934;-48
2021/08/30 00:43:18;;;;;;;23.73;16.93;;;20.20;99.90;;;20.61;66.31;101387.81;4963829;28;97313;-47
2021/08/30 00:45:43;;;;;;;20.50;15.23;;;20.30;99.90;;;20.62;64.83;101386.84;4979732;28;97494;-52
2021/08/30 00:48:09;;;;;;;7.23;6.20;;;20.20;99.90;;;20.65;63.74;101392.00;4967521;28;103107;-52
2021/08/30 00:50:35;;;;;;;17.57;15.60;;;20.30;99.90;;;20.62;66.15;101390.38;4969344;28;97887;-53
2021/08/30 00:53:02;;;;;;;17.93;16.13;;;20.30;99.90;;;20.64;63.96;101387.59;4969347;28;98170;-51
2021/08/30 00:55:28;;;;;;;23.83;16.90;;;20.30;99.90;;;20.61;65.39;101393.16;4970034;28;98582;-47
2021/08/30 00:57:54;;;;;;;13.13;11.77;;;20.30;99.90;;;20.61;64.36;101393.16;4961246;28;97512;-52
2021/08/30 01:00:20;;;;;;;16.53;11.37;;;20.30;99.90;;;20.60;65.99;101394.13;4970145;28;97423;-47
2021/08/30 01:02:46;;;;;;;19.73;16.67;;;20.30;99.90;;;20.61;63.74;101390.47;4966523;28;97547;-53
2021/08/30 01:05:14;;;;;;;8.83;8.03;;;20.20;99.90;;;20.63;63.69;101392.09;4967917;28;98510;-50
2021/08/30 01:08:07;;;;;;;21.60;16.73;;;20.30;99.90;;;20.62;66.04;101394.88;4972746;28;97473;-53
2021/08/30 01:10:55;;;;;;;6.50;5.37;;;20.30;99.90;;;20.64;63.93;101398.31;4963324;28;98137;-53
2021/08/30 01:13:50;;;;;;;5.33;4.63;;;20.30;99.90;;;20.66;65.02;101391.88;4962590;28;97778;-52
2021/08/30 01:16:17;;;;;;;10.73;9.03;;;20.30;99.90;;;20.66;63.96;101388.34;4969829;28;100633;-54
2021/08/30 01:18:44;;;;;;;20.83;17.90;;;20.30;99.90;;;20.63;65.51;101391.22;4965125;28;97788;-54
2021/08/30 01:21:14;;;;;;;15.20;10.23;;;20.30;99.90;;;20.65;64.49;101390.16;4983560;28;97489;-53
2021/08/30 01:23:44;;;;;;;12.73;10.20;;;20.30;99.90;;;20.63;64.26;101385.88;4952615;28;97091;-54
2021/08/30 01:26:13;;;;;;;19.73;17.03;;;20.30;99.90;;;20.64;64.41;101383.09;4965686;28;102928;-54
2021/08/30 01:29:04;;;;;;;20.60;16.67;;;20.30;99.90;;;20.68;63.74;101389.97;4968682;28;99916;-52
2021/08/30 01:31:48;;;;;;;22.90;17.53;;;20.30;99.90;;;20.66;63.92;101393.72;4964223;28;98890;-52
2021/08/30 01:34:15;;;;;;;12.77;11.30;;;20.30;99.90;;;20.69;63.59;101394.38;4980164;28;97143;-52
2021/08/30 01:36:44;;;;;;;18.40;15.10;;;20.40;99.90;;;20.67;64.45;101400.78;4969728;28;102859;-54
2021/08/30 01:39:11;;;;;;;18.00;16.00;;;20.30;99.90;;;20.64;65.73;101398.31;4980770;28;99449;-54
2021/08/30 01:41:38;;;;;;;19.40;17.40;;;20.30;99.90;;;20.68;66.26;101397.13;4968268;28;97672;-52
2021/08/30 01:44:06;;;;;;;20.07;17.30;;;20.40;99.90;;;20.63;65.26;101396.59;4962302;28;97142;-52
2021/08/30 01:46:35;;;;;;;21.07;17.90;;;20.30;99.90;;;20.68;63.70;101394.47;4971954;28;98048;-55
2021/08/30 01:49:03;;;;;;;13.83;12.50;;;20.30;99.90;;;20.67;64.00;101392.75;4965560;28;99600;-53
2021/08/30 01:51:30;;;;;;;16.13;14.30;;;20.30;99.90;;;20.67;64.82;101390.91;4968259;28;98231;-52
2021/08/30 01:53:57;;;;;;;19.27;17.23;;;20.40;99.90;;;20.70;64.66;101401.47;4962458;28;97548;-52
2021/08/30 01:56:26;;;;;;;20.43;16.13;;;20.40;99.90;;;20.69;64.31;101401.56;4970017;28;98773;-55
2021/08/30 02:01:37;;;;;;;23.80;18.97;;;20.40;99.90;;;20.62;65.03;101401.09;4971617;28;99412;-53
2021/08/30 02:04:04;;;;;;;31.87;16.63;;;20.30;99.90;;;20.67;63.95;101400.78;4968671;28;97576;-52
2021/08/30 02:06:33;;;;;;;19.47;15.13;;;20.30;99.90;;;20.65;65.43;101406.25;4968086;28;97553;-54
2021/08/30 02:08:59;;;;;;;13.33;10.50;;;20.30;99.90;;;20.65;64.72;101410.75;4958217;28;99486;-52
2021/08/30 02:11:31;;;;;;;17.13;15.33;;;20.30;99.90;;;20.63;64.40;101407.31;4967070;28;97325;-52
2021/08/30 02:13:58;;;;;;;24.37;20.93;;;20.30;99.90;;;20.65;64.66;101410.75;4970897;28;98127;-55
2021/08/30 02:16:26;;;;;;;21.93;19.57;;;20.30;99.90;;;20.63;64.70;101412.69;4967332;28;97529;-48
2021/08/30 02:19:02;;;;;;;24.07;18.70;;;20.30;99.90;;;20.64;64.17;101409.03;4968914;28;97834;-53
2021/08/30 02:21:58;;;;;;;22.80;19.73;;;20.30;99.90;;;20.65;63.87;101405.38;4968443;28;96950;-52
2021/08/30 02:24:43;;;;;;;19.13;15.47;;;20.30;99.90;;;20.66;64.04;101407.09;4971248;28;97044;-48
2021/08/30 02:27:45;;;;;;;16.97;14.03;;;20.30;99.90;;;20.68;63.93;101410.53;4963582;28;104864;-54
2021/08/30 02:30:27;;;;;;;25.90;21.87;;;20.40;99.90;;;20.65;64.01;101414.28;4963257;28;101765;-51
2021/08/30 02:32:59;;;;;;;11.83;10.60;;;20.30;99.90;;;20.68;63.64;101415.91;4968730;28;97354;-49
2021/08/30 02:35:29;;;;;;;27.07;19.77;;;20.40;99.90;;;20.70;63.86;101416.69;4964685;28;97551;-53
2021/08/30 02:37:57;;;;;;;16.73;12.53;;;20.40;99.90;;;20.73;63.48;101421.84;4979588;28;97407;-53
2021/08/30 02:40:27;;;;;;;24.33;21.60;;;20.40;99.90;;;20.67;66.02;101408.81;4972514;28;97115;-55
2021/08/30 02:42:56;;;;;;;9.33;7.90;;;20.40;99.90;;;20.72;63.38;101417.44;4957820;28;97749;-52
2021/08/30 02:45:23;;;;;;;23.97;21.47;;;20.40;99.90;;;20.71;63.88;101405.00;4952185;28;98715;-49
2021/08/30 02:47:51;;;;;;;26.00;21.33;;;20.40;99.90;;;20.69;65.38;101412.28;4963285;28;96823;-51
2021/08/30 02:50:17;;;;;;;23.67;20.47;;;20.40;99.90;;;20.73;65.45;101413.78;4969899;28;97708;-52
2021/08/30 02:52:46;;;;;;;24.17;21.17;;;20.40;99.90;;;20.72;65.39;101414.75;4969404;28;96973;-53
2021/08/30 02:55:13;;;;;;;10.60;9.60;;;20.40;99.90;;;20.74;63.38;101410.16;4989395;28;97208;-53
2021/08/30 02:57:40;;;;;;;25.47;21.77;;;20.40;99.90;;;20.74;64.81;101415.50;4959065;28;100347;-50
2021/08/30 03:00:07;;;;;;;23.83;19.70;;;20.40;99.90;;;20.73;64.20;101414.66;4945239;28;100203;-53
2021/08/30 03:02:36;;;;;;;22.83;18.63;;;20.40;99.90;;;20.74;63.69;101410.16;4964952;28;97369;-54
2021/08/30 03:05:03;;;;;;;15.90;13.60;;;20.40;99.90;;;20.74;63.70;101410.16;4959747;28;104416;-49
2021/08/30 03:07:30;;;;;;;10.40;9.40;;;20.40;99.90;;;20.77;63.32;101410.81;4944117;28;100731;-51
2021/08/30 03:09:58;;;;;;;7.93;7.17;;;20.40;99.90;;;20.79;63.23;101408.03;4958842;28;97529;-52
2021/08/30 03:12:30;;;;;;;23.60;20.73;;;20.50;99.90;;;20.77;64.18;101404.59;4950940;28;97228;-52
2021/08/30 03:15:03;;;;;;;24.63;20.97;;;20.50;99.90;;;20.68;64.86;101405.19;4938227;28;99072;-50
2021/08/30 03:17:35;;;;;;;10.90;8.90;;;20.30;99.90;;;20.68;63.75;101394.47;4948313;28;98991;-49
2021/08/30 03:20:03;;;;;;;23.60;21.00;;;20.30;99.90;;;20.69;64.79;101396.22;4942956;28;97252;-48
2021/08/30 03:22:30;;;;;;;9.47;8.40;;;20.40;99.90;;;20.71;63.77;101394.28;4949429;28;97356;-51
2021/08/30 03:24:59;;;;;;;21.87;19.57;;;20.40;99.90;;;20.72;63.93;101396.00;4958163;28;97554;-54
2021/08/30 03:27:26;;;;;;;6.80;6.20;;;20.40;99.90;;;20.74;63.35;101394.06;4952604;28;102724;-52
2021/08/30 03:29:52;;;;;;;22.90;19.87;;;20.40;99.90;;;20.76;63.56;101398.38;4948760;28;100235;-50
2021/08/30 03:32:20;;;;;;;24.17;19.87;;;20.50;99.90;;;20.81;63.52;101403.41;4947742;28;97385;-54
2021/08/30 03:34:48;;;;;;;6.60;6.00;;;20.50;99.90;;;20.81;63.08;101408.75;4952938;28;97446;-54
2021/08/30 03:37:15;;;;;;;22.63;20.23;;;20.50;99.90;;;20.80;63.44;101404.38;4947829;28;97810;-50
2021/08/30 03:39:44;;;;;;;13.57;12.27;;;20.50;99.90;;;20.80;63.43;101405.22;4950036;28;98787;-57
2021/08/30 03:42:10;;;;;;;19.03;16.50;;;20.50;99.90;;;20.78;64.49;101406.31;4930976;28;97562;-52
2021/08/30 03:44:37;;;;;;;29.33;24.90;;;20.50;99.90;;;20.71;65.61;101400.50;4951800;28;97093;-50
2021/08/30 03:47:06;;;;;;;15.97;14.40;;;20.40;99.90;;;20.80;63.23;101399.00;4946327;28;98072;-51
2021/08/30 03:49:33;;;;;;;19.73;17.67;;;20.50;99.90;;;20.81;63.14;101411.44;4950399;28;97437;-54
2021/08/30 03:52:00;;;;;;;25.40;22.07;;;20.50;99.90;;;20.78;64.98;101406.31;4962793;28;97652;-53
2021/08/30 03:54:27;;;;;;;28.47;24.17;;;20.50;99.90;;;20.76;63.85;101409.09;4953512;28;97177;-48
2021/08/30 03:56:54;;;;;;;26.80;23.90;;;20.50;99.90;;;20.68;65.60;101411.41;4956763;28;97202;-50
2021/08/30 03:59:21;;;;;;;20.13;17.40;;;20.40;99.90;;;20.74;63.54;101402.13;4947983;28;97921;-52
2021/08/30 04:01:52;;;;;;;8.23;7.43;;;20.40;99.90;;;20.76;63.33;101413.59;4943610;28;99106;-54
2021/08/30 04:04:21;;;;;;;26.47;23.47;;;20.50;99.90;;;20.75;63.76;101411.88;4961163;28;96936;-53
2021/08/30 04:06:48;;;;;;;8.07;7.23;;;20.50;99.90;;;20.76;63.11;101408.22;4951024;28;97989;-52
2021/08/30 04:09:18;;;;;;;11.07;9.97;;;20.50;99.90;;;20.80;62.97;101412.41;4962271;28;97648;-51
2021/08/30 04:11:45;;;;;;;26.40;23.47;;;20.50;99.90;;;20.80;63.09;101420.47;4944020;28;97246;-52
2021/08/30 04:14:12;;;;;;;18.40;16.40;;;20.50;99.90;;;20.81;63.13;101411.44;4962937;28;98376;-49
2021/08/30 04:16:39;;;;;;;33.60;22.93;;;20.50;99.90;;;20.84;63.16;101416.63;4949387;28;98302;-52
2021/08/30 04:19:05;;;;;;;20.07;16.20;;;20.50;99.90;;;20.86;63.01;101412.03;4963673;28;97639;-53
2021/08/30 04:21:31;;;;;;;6.50;6.00;;;20.60;99.90;;;20.90;62.56;101416.22;4942826;28;97349;-53
2021/08/30 04:23:57;;;;;;;24.30;20.43;;;20.60;99.90;;;20.88;62.79;101417.28;4942564;28;97330;-52
2021/08/30 04:26:23;;;;;;;23.37;20.97;;;20.60;99.90;;;20.86;62.80;101414.72;4947163;28;98929;-47
2021/08/30 04:28:49;;;;;;;13.00;11.80;;;20.60;99.90;;;20.85;62.89;101418.34;4948805;28;98522;-49
2021/08/30 04:31:15;;;;;;;27.50;24.60;;;20.50;99.90;;;20.85;62.95;101415.66;4968247;28;97092;-54
2021/08/30 04:33:40;;;;;;;19.47;16.27;;;20.50;99.90;;;20.83;63.50;101422.97;4969986;28;97176;-48
2021/08/30 04:36:06;;;;;;;26.30;23.57;;;20.50;99.90;;;20.84;63.81;101424.69;4964504;28;98695;-53
2021/08/30 04:38:33;;;;;;;21.43;19.27;;;20.50;99.90;;;20.83;62.99;101430.13;4984758;28;97255;-49
2021/08/30 04:40:59;;;;;;;8.37;7.57;;;20.50;99.90;;;20.82;63.04;101436.44;4966360;28;97327;-51
2021/08/30 04:43:25;;;;;;;28.53;24.17;;;20.50;99.90;;;20.83;63.56;101441.72;4969435;28;97201;-52
2021/08/30 04:45:51;;;;;;;24.07;20.33;;;20.50;99.90;;;20.80;63.93;101437.41;4963342;28;99483;-51
2021/08/30 04:48:17;;;;;;;29.10;25.37;;;20.50;99.90;;;20.77;63.86;101432.25;4969338;28;100638;-52
2021/08/30 04:50:43;;;;;;;28.13;24.63;;;20.50;99.90;;;20.75;63.83;101436.00;4959832;28;97069;-55
2021/08/30 04:53:09;;;;;;;27.30;24.37;;;20.40;99.90;;;20.73;63.67;101436.09;4973034;28;97764;-54
2021/08/30 04:55:36;;;;;;;28.93;25.93;;;20.40;99.90;;;20.72;63.99;101445.09;4967468;28;98635;-55
2021/08/30 04:58:04;;;;;;;23.93;18.87;;;20.40;99.90;;;20.63;64.15;101436.81;4957976;28;97749;-53
2021/08/30 05:00:31;;;;;;;30.97;27.13;;;20.30;99.90;;;20.63;64.30;101437.66;4959346;28;97724;-53
2021/08/30 05:02:56;;;;;;;24.03;21.53;;;20.30;99.90;;;20.67;64.84;101438.31;4976729;28;102340;-52
2021/08/30 05:05:22;;;;;;;14.07;12.67;;;20.40;99.90;;;20.69;63.70;101433.75;4969836;28;99999;-49
2021/08/30 05:07:48;;;;;;;31.90;27.97;;;20.40;99.90;;;20.68;63.76;101440.03;4964425;28;97953;-53
2021/08/30 05:10:14;;;;;;;17.63;15.87;;;20.40;99.90;;;20.69;63.61;101439.09;4976144;28;97085;-54
2021/08/30 05:12:40;;;;;;;30.47;27.10;;;20.40;99.90;;;20.59;64.44;101437.97;4963787;28;97554;-53
2021/08/30 05:15:07;;;;;;;23.30;20.80;;;20.30;99.90;;;20.60;63.92;101445.91;4963814;28;98861;-54
2021/08/30 05:17:33;;;;;;;10.87;9.83;;;20.20;99.90;;;20.59;64.08;101437.97;4968453;28;97113;-51
2021/08/30 05:19:59;;;;;;;16.60;14.83;;;20.20;99.90;;;20.62;63.75;101443.13;4969377;28;104984;-53
2021/08/30 05:22:25;;;;;;;32.27;28.87;;;20.30;99.90;;;20.60;64.65;101445.06;4971452;28;98024;-55
2021/08/30 05:24:51;;;;;;;30.83;27.63;;;20.30;99.90;;;20.62;64.18;101440.44;4979522;28;97468;-52
2021/08/30 05:27:16;;;;;;;27.60;22.60;;;20.30;99.90;;;20.62;64.16;101448.47;4987143;28;97160;-50
2021/08/30 05:29:42;;;;;;;31.60;28.20;;;20.30;99.90;;;20.61;64.57;101444.09;4966601;28;98152;-58
2021/08/30 05:32:08;;;;;;;13.30;11.90;;;20.20;99.90;;;20.61;63.74;101444.09;4984637;28;99620;-52
2021/08/30 05:34:34;;;;;;;25.93;23.17;;;20.30;99.90;;;20.61;64.05;101446.75;4973128;28;97549;-52
2021/08/30 05:37:00;;;;;;;32.63;28.70;;;20.30;99.90;;;20.59;64.72;101460.28;4969238;28;97185;-53
2021/08/30 05:39:26;;;;;;;22.30;19.03;;;20.30;99.90;;;20.59;64.04;101462.09;4976759;28;97480;-52
2021/08/30 05:41:52;;;;;;;31.67;27.40;;;20.20;99.90;;;20.56;65.50;101460.47;4964217;28;98147;-52
2021/08/30 05:44:18;;;;;;;27.90;24.97;;;20.30;99.90;;;20.58;64.08;101463.06;4968693;28;99541;-50
2021/08/30 05:46:43;;;;;;;25.97;23.23;;;20.20;99.90;;;20.62;64.40;101469.94;4968109;28;97739;-52
2021/08/30 05:49:09;;;;;;;35.17;29.17;;;20.30;99.90;;;20.59;65.23;101470.13;4990880;28;97400;-51
2021/08/30 05:51:35;;;;;;;30.77;27.40;;;20.30;99.90;;;20.61;64.91;101468.22;4982844;28;98486;-51
2021/08/30 05:54:01;;;;;;;34.20;28.63;;;20.30;99.90;;;20.59;64.91;101472.81;4969611;28;100197;-54
2021/08/30 05:56:27;;;;;;;29.33;24.77;;;20.20;99.90;;;20.61;64.29;101476.25;4967529;28;99073;-53
2021/08/30 05:58:53;;;;;;;31.07;27.03;;;20.30;99.90;;;20.64;64.61;101473.38;4984885;28;96744;-50
2021/08/30 06:01:19;;;;;;;11.70;10.50;;;20.30;99.90;;;20.69;63.66;101471.25;4965173;28;98943;-53
2021/08/30 06:03:45;;;;;;;31.83;27.03;;;20.40;99.90;;;20.68;63.70;101480.22;4967885;28;98871;-51
2021/08/30 06:06:11;;;;;;;14.47;12.60;;;20.40;99.90;;;20.71;63.52;101475.56;4966834;28;98217;-53
2021/08/30 06:08:37;;;;;;;30.17;26.63;;;20.40;99.90;;;20.66;65.31;101482.16;4965510;28;102767;-52
2021/08/30 06:11:03;;;;;;;16.17;14.60;;;20.40;99.90;;;20.71;63.72;101485.44;4978672;28;97413;-49
2021/08/30 06:13:28;;;;;;;32.47;28.23;;;20.40;99.90;;;20.73;63.89;101470.09;4971244;28;98225;-49
2021/08/30 06:15:54;;;;;;;22.47;20.07;;;20.40;99.90;;;20.71;63.77;101470.19;4973569;28;110415;-52
2021/08/30 06:18:20;;;;;;;32.00;28.50;;;20.40;99.90;;;20.66;65.90;101476.81;4966441;28;97603;-52
2021/08/30 06:20:47;;;;;;;23.70;21.20;;;20.40;99.90;;;20.65;64.37;101469.72;4961622;28;97661;-52
2021/08/30 06:23:13;;;;;;;23.70;20.90;;;20.30;99.90;;;20.64;65.49;101473.38;4965507;28;100220;-46
2021/08/30 06:25:39;;;;;;;33.10;29.60;;;20.30;99.90;;;20.62;64.64;101475.28;4969086;28;99139;-51
2021/08/30 06:28:04;;;;;;;32.10;28.70;;;20.30;99.90;;;20.65;63.85;101477.75;4964857;28;97306;-51
2021/08/30 06:30:33;;;;;;;33.13;29.60;;;20.30;99.90;;;20.62;65.68;101475.28;4970669;28;97373;-52
2021/08/30 06:32:59;;;;;;;37.30;31.97;;;20.30;99.90;;;20.59;65.17;101471.00;4956149;28;97950;-56
2021/08/30 06:35:25;;;;;;;30.77;27.63;;;20.30;99.90;;;20.68;63.79;101472.19;4968331;28;97560;-51
2021/08/30 06:37:51;;;;;;;36.67;30.07;;;20.40;99.90;;;20.66;65.17;101482.16;4958711;28;97657;-50
2021/08/30 06:40:18;;;;;;;32.13;28.40;;;20.40;99.90;;;20.67;64.66;101484.75;4969866;28;97377;-52
2021/08/30 06:42:44;;;;;;;32.83;29.40;;;20.40;99.90;;;20.60;66.03;101471.84;4968507;28;97879;-54
2021/08/30 06:45:10;;;;;;;23.37;20.97;;;20.30;99.90;;;20.68;63.97;101480.22;4967503;28;101372;-52
2021/08/30 06:47:36;;;;;;;14.87;13.43;;;20.40;99.90;;;20.62;64.12;101480.66;4970601;28;97433;-52
2021/08/30 06:50:04;;;;;;;37.97;31.60;;;20.30;99.90;;;20.62;65.11;101480.66;4963503;28;97283;-53
2021/08/30 06:52:30;;;;;;;31.27;26.70;;;20.40;99.90;;;20.60;64.49;101482.56;4964898;28;96889;-53
2021/08/30 06:54:56;;;;;;;34.37;30.50;;;20.30;99.90;;;20.63;64.37;101482.38;4961749;28;99320;-55
2021/08/30 06:57:21;;;;;;;31.97;28.57;;;20.30;99.90;;;20.59;65.59;101476.34;4976296;28;97720;-46
2021/08/30 06:59:47;;;;;;;36.40;32.37;;;20.30;99.90;;;20.59;65.34;101486.22;4962981;28;106013;-48
2021/08/30 07:02:13;;;;;;;13.00;11.87;;;20.30;99.90;;;20.60;64.08;101482.56;4971745;28;97783;-47
2021/08/30 07:04:39;;;;;;;16.87;15.00;;;20.30;99.90;;;20.69;63.73;101476.63;4973165;28;98252;-53
2021/08/30 07:07:05;;;;;;;23.87;21.40;;;20.40;99.90;;;20.70;63.83;101478.34;4967672;28;97111;-50
2021/08/30 07:09:30;;;;;;;35.17;30.53;;;20.40;99.90;;;20.73;63.55;101472.78;4970066;28;97729;-53
2021/08/30 07:11:56;;;;;;;33.50;29.70;;;20.40;99.90;;;20.66;65.11;101476.81;4966046;28;100096;-48
2021/08/30 07:14:22;;;;;;;15.00;13.43;;;20.40;99.90;;;20.70;63.73;101478.34;4974653;28;97643;-48
2021/08/30 07:16:48;;;;;;;15.40;13.90;;;20.40;99.90;;;20.75;63.37;101471.72;4966479;28;96993;-50
2021/08/30 07:19:14;;;;;;;32.70;29.23;;;20.50;99.90;;;20.68;65.07;101467.69;4976933;28;97199;-49
2021/08/30 07:21:40;;;;;;;38.03;31.90;;;20.50;99.90;;;20.69;65.08;101473.94;4969269;28;97582;-54
2021/08/30 07:24:06;;;;;;;14.63;13.13;;;20.40;99.90;;;20.72;63.61;101471.06;4971963;28;97664;-52
2021/08/30 07:26:32;;;;;;;18.87;16.90;;;20.40;99.90;;;20.71;63.77;101466.66;4966822;28;97282;-53
2021/08/30 07:28:58;;;;;;;28.23;25.23;;;20.50;99.90;;;20.69;64.60;101476.63;4962086;28;97319;-52
2021/08/30 07:31:23;;;;;;;40.93;32.53;;;20.40;99.90;;;20.68;64.57;101472.19;4973031;28;98672;-49
2021/08/30 07:33:49;;;;;;;36.70;31.70;;;20.40;99.90;;;20.71;65.26;101480.06;4966949;28;106981;-50
2021/08/30 07:36:15;;;;;;;18.80;16.83;;;20.40;99.90;;;20.71;64.04;101480.91;4965245;28;97419;-47
2021/08/30 07:38:42;;;;;;;13.80;12.50;;;20.40;99.90;;;20.71;63.75;101480.06;4974627;28;97054;-52
2021/08/30 07:41:07;;;;;;;40.87;34.67;;;20.40;99.90;;;20.74;63.87;101474.50;4961744;28;101780;-53
2021/08/30 07:43:34;;;;;;;39.90;34.47;;;20.40;99.90;;;20.62;66.74;101484.19;4956947;28;99784;-48
2021/08/30 07:46:01;;;;;;;42.67;34.63;;;20.30;99.90;;;20.69;64.32;101487.34;4964818;28;97631;-51
2021/08/30 07:48:27;;;;;;;40.90;36.00;;;20.40;99.90;;;20.63;65.96;101490.41;4968764;28;99314;-51
2021/08/30 07:50:53;;;;;;;41.67;36.47;;;20.30;99.90;;;20.60;65.22;101490.63;4967817;28;97607;-51
2021/08/30 07:53:20;;;;;;;39.30;34.53;;;20.30;99.90;;;20.62;65.68;101488.69;4966822;28;99036;-52
2021/08/30 07:55:46;;;;;;;44.50;36.97;;;20.30;99.90;;;20.61;64.96;101501.22;4983015;28;97319;-51
2021/08/30 07:58:15;;;;;;;29.53;26.47;;;20.30;99.90;;;20.68;64.10;101490.97;4965670;28;97418;-53
2021/08/30 08:00:41;;;;;;;43.03;37.10;;;20.40;99.90;;;20.73;64.07;101504.94;4991247;28;98625;-50
2021/08/30 08:03:07;;;;;;;27.33;24.43;;;20.40;99.90;;;20.70;65.58;101499.78;4950926;28;98325;-52
2021/08/30 08:05:32;;;;;;;35.87;31.13;;;20.40;99.90;;;20.68;65.04;101497.19;4969364;28;97343;-53
2021/08/30 08:07:58;;;;;;;40.07;35.77;;;20.40;99.90;;;20.70;64.09;101500.66;4955005;28;103505;-53
2021/08/30 08:10:24;;;;;;;39.87;35.57;;;20.40;99.90;;;20.62;66.38;101502.09;4963910;28;97732;-51
2021/08/30 08:12:50;;;;;;;42.57;37.57;;;20.30;99.90;;;20.61;66.33;101505.72;4964424;28;105511;-51
2021/08/30 08:15:15;;;;;;;45.33;37.73;;;20.30;99.90;;;20.60;66.03;101506.69;4971692;28;97613;-52
2021/08/30 08:17:41;;;;;;;44.20;39.30;;;20.30;99.90;;;20.57;65.59;101506.91;4975369;28;96989;-48
2021/08/30 08:20:08;;;;;;;45.27;37.30;;;20.30;99.90;;;20.59;65.59;101513.00;4964325;28;108601;-51
2021/08/30 08:22:35;;;;;;;42.03;37.50;;;20.30;99.90;;;20.56;66.24;101507.84;4971033;28;97792;-51
2021/08/30 08:25:06;;;;;;;31.23;28.03;;;20.30;99.90;;;20.59;64.15;101503.16;4977378;28;97628;-52
2021/08/30 08:27:33;;;;;;;41.03;36.60;;;20.30;99.90;;;20.57;66.70;101509.59;4985967;28;98177;-53
2021/08/30 08:29:59;;;;;;;40.60;34.43;;;20.30;99.90;;;20.62;64.46;101510.13;4963750;28;97572;-48
2021/08/30 08:32:25;;;;;;;30.40;27.10;;;20.30;99.90;;;20.63;64.64;101503.81;4971484;28;97238;-49
2021/08/30 08:34:51;;;;;;;17.27;15.67;;;20.40;99.90;;;20.70;63.93;101510.50;4959714;28;98274;-55
2021/08/30 08:37:16;;;;;;;18.93;17.07;;;20.40;99.90;;;20.73;63.79;101511.16;4967703;28;96842;-49
2021/08/30 08:39:42;;;;;;;23.53;20.93;;;20.50;99.90;;;20.78;64.42;101513.53;4983256;28;98839;-55
2021/08/30 08:42:08;;;;;;;34.87;31.10;;;20.50;99.90;;;20.79;65.92;101515.25;4966822;28;103190;-51
2021/08/30 08:44:34;;;;;;;33.93;30.23;;;20.50;99.90;;;20.82;64.05;101517.72;4976717;28;98986;-55
2021/08/30 08:47:01;;;;;;;32.27;28.87;;;20.50;99.90;;;20.77;64.89;101518.03;4961367;28;97162;-51
2021/08/30 08:49:27;;;;;;;33.03;27.83;;;20.50;99.90;;;20.82;63.59;101517.72;4972853;28;97206;-49
2021/08/30 08:51:52;;;;;;;42.60;33.03;;;20.60;99.90;;;20.78;67.46;101518.91;4964212;28;99157;-50
2021/08/30 08:54:18;;;;;;;40.77;34.67;;;20.50;99.90;;;20.71;67.26;101525.63;4969817;28;97495;-47
2021/08/30 08:56:44;;;;;;;32.27;28.80;;;20.50;99.90;;;20.80;64.48;101516.97;4970386;28;98360;-57
2021/08/30 08:59:10;;;;;;;32.30;28.60;;;20.50;99.90;;;20.88;63.26;101514.66;4968334;28;97489;-49
2021/08/30 09:01:36;;;;;;;15.20;13.80;;;20.60;99.90;;;20.94;62.95;101508.03;4968441;28;97843;-51
2021/08/30 09:04:04;;;;;;;21.00;18.97;;;20.70;99.90;;;21.02;62.50;101506.59;4959905;28;97292;-53
2021/08/30 09:06:39;;;;;;;21.87;19.57;;;20.90;99.90;;;21.09;62.48;101513.25;4980284;28;98056;-50
2021/08/30 09:09:06;;;;;;;19.53;17.53;;;20.90;99.90;;;21.15;62.42;101506.63;4956245;28;97753;-53
2021/08/30 09:11:45;;;;;;;19.87;17.93;;;21.00;99.90;;;21.19;62.43;101507.28;4965115;28;99326;-53
2021/08/30 09:14:17;;;;;;;16.57;14.97;;;21.00;99.90;;;21.20;62.02;101506.31;4962043;28;98534;-51
2021/08/30 09:16:45;;;;;;;23.90;21.17;;;21.10;99.90;;;21.30;62.35;101515.50;4961621;28;97671;-58
2021/08/30 09:19:15;;;;;;;15.63;14.20;;;21.20;99.90;;;21.38;61.37;101507.78;4943412;28;104531;-52
2021/08/30 09:21:48;;;;;;;20.87;18.77;;;21.30;99.90;;;21.43;61.29;101508.34;4985220;28;98101;-50
2021/08/30 09:24:15;;;;;;;15.50;14.07;;;21.40;99.90;;;21.47;61.13;101504.50;4957344;28;97889;-53
2021/08/30 09:26:56;;;;;;;24.77;22.17;;;21.40;99.90;;;21.50;61.77;101509.66;4966589;28;97305;-51
2021/08/30 09:29:25;;;;;;;14.70;13.30;;;21.40;99.90;;;21.52;61.02;101515.78;4976782;28;102746;-53
2021/08/30 09:32:19;;;;;;;19.63;17.53;;;21.40;99.90;;;21.55;62.03;101510.19;4961627;28;98180;-55
2021/08/30 09:34:47;;;;;;;26.40;23.60;;;21.40;99.90;;;21.48;62.24;101526.81;4965336;28;97032;-56
2021/08/30 09:37:22;;;;;;;19.13;17.27;;;21.30;99.90;;;21.45;61.47;101519.84;4964705;28;97505;-51
2021/08/30 09:39:57;;;;;;;15.43;13.93;;;21.30;99.90;;;21.46;61.41;101521.56;4965056;28;99071;-49
2021/08/30 09:42:26;;;;;;;24.83;22.20;;;21.30;99.90;;;21.37;62.47;101519.50;4969132;28;99050;-53
2021/08/30 09:44:55;;;;;;;27.17;23.17;;;21.20;99.90;;;21.36;63.77;101517.78;4968020;28;97259;-50
2021/08/30 09:47:21;;;;;;;27.07;23.43;;;21.20;99.90;;;21.30;63.24;101515.50;4963403;28;97350;-53
2021/08/30 09:50:37;;;;;;;15.10;13.70;;;21.10;99.90;;;21.31;61.85;101519.91;5104502;27;96658;-52
2021/08/30 09:53:04;;;;;;;24.73;22.27;;;21.10;99.90;;;21.31;62.61;101511.88;5065635;27;99080;-50
2021/08/30 09:55:32;;;;;;;14.20;12.87;;;21.20;99.90;;;21.38;61.43;101518.53;5076700;27;98857;-52
2021/08/30 09:57:59;;;;;;;21.83;19.60;;;21.20;99.90;;;21.43;61.99;101520.91;5054644;27;98052;-47
2021/08/30 10:00:26;;;;;;;14.33;13.03;;;21.30;99.90;;;21.46;61.04;101508.16;5057286;27;98736;-48
2021/08/30 10:02:58;;;;;;;14.07;12.77;;;21.40;99.90;;;21.49;60.95;101505.25;5052795;27;98771;-51
2021/08/30 10:05:27;;;;;;;13.57;12.37;;;21.40;99.90;;;21.52;60.62;101513.09;5039150;27;99439;-52
2021/08/30 10:07:53;;;;;;;13.13;12.00;;;21.50;99.90;;;21.54;60.81;101507.59;5051360;27;101564;-52